METAR AND TAF INFORMATION
METAR FOR KEWR
KEWR 130751Z 24017G31KT 10SM FEW034 FEW070 SCT110 12/03 A2950 RMK AO2 PK WND 23036/0718 SLP988 T01170033
KEWR 130651Z 24017G26KT 10SM SCT036 BKN100 13/06 A2949 RMK AO2 PK WND 23031/0636 SLP986 T01280056
KEWR 130551Z 23017G34KT 10SM BKN055 BKN120 13/06 A2949 RMK AO2 PK WND 25034/0545 SLP987 60000 T01330056 10156 20128 58005
KEWR 130823Z 1308/1412 24017G31KT P6SM FEW035
FM131800 27023G34KT P6SM VCSH BKN050
FM140000 28016G25KT P6SM SCT040
FM140900 27009KT P6SM FEW250

 AIRPORT MAP

 RUNWAY INFORMATION
Runway 04L Runway length 11000 ft Runway width 150 ft
Runway elevation 10 ft Runway displaced threshold 2543 ft Runway heading 26
Runway 22R Runway length 11000 ft Runway width 150 ft
Runway elevation 10 ft Runway displaced threshold 1423 ft Runway heading 206
Runway 04R Runway length 10000 ft Runway width 150 ft
Runway elevation 11 ft Runway displaced threshold 1190 ft Runway heading 26
Runway 22L Runway length 10000 ft Runway width 150 ft
Runway elevation 10 ft Runway displaced threshold 1794 ft Runway heading 206
Runway 11 Runway length 6800 ft Runway width 150 ft
Runway elevation 18 ft Runway displaced threshold 0 ft Runway heading 95
Runway 29 Runway length 6800 ft Runway width 150 ft
Runway elevation 10 ft Runway displaced threshold 298 ft Runway heading 275

 AIRPORT FREQUENCIES
Type APP Name NEW YORK A Frequency 127.6 MHZ
Type ATIS Name ATIS Frequency 115.7 MHZ
Type CLD Name CLNC DEL Frequency 118.85 MHZ
Type DEP Name NEW YORK D Frequency 119.2 MHZ
Type GND Name GND Frequency 121.8 MHZ
Type TWR Name TWR Frequency 118.3 MHZ
Type UNIC Name UNICOM Frequency 122.95 MHZ

 AIRPORT NEAR NAVIGATION AIDS
Type NDB Name Chesa Frequency 241 KHZ
Type NDB Name Lizah Frequency 373 KHZ

-